首页
METAR-TAF:

METAR-TAF

机场 :

阿伦敦, 宾夕法尼亚州, 美国

纬度: 40-39-03N, 经度: 075-26-57W, 海拔: 120米

当前天气观测

该预报发布于59分钟前的21:51 UTC
风速11节,风向西转西南,有时为18节阵风
温度 31°C
湿度 43%
气压 1016 hPa
能見度: 16.1公里
天空无云

METAR: KABE 262151Z 25011G18KT 10SM CLR 31/17 A3000 RMK AO2 LTG DSNT NW SLP157 T03060167

时间: 18:50 (22:50 UTC)

预报

该预报发布于1小时和19分钟前的21:31 UTC
预报有效从26日的 22点(UTC)到 27日的 18点(UTC)
风速9节,风向西转西南
能見度: 10公里
少量云层高于5000英尺
短暂存在
从 26日的 22点(UTC)到 26日的 24点(UTC)
风速20节,风向多变,有时为30节阵风
能見度: 4.8公里
多云层高于2000英尺, 积雨云.
雷暴, 小雨
从 27日的 0000点(UTC)
风速4节,风向西
能見度: 10公里
散云层高于5000英尺
从 27日的 0400点(UTC)
风速2节,风向西北
能見度: 10公里
天空无云
从 27日的 1600点(UTC)
风速7节,风向西转西北
能見度: 10公里
天空无云

TAF: KABE 262131Z 2622/2718 25009KT P6SM FEW050 TEMPO 2622/2624 VRB20G30KT 3SM -TSRA BKN020CB FM270000 27004KT P6SM SCT050 FM270400 32002KT P6SM SKC FM271600 30007KT P6SM SKC

超过4000个机场的气象观测和天气预报(METAR&TAF报告)。

可查询的气象台以黄色和红色小点在地图上表示。

将鼠标移到小点上方,可查看气象台名称。

然后点击查看天气观测和预报。

如需切换地图:点击带黑十字的绿色按钮放大地图;点击带横线的绿色按钮缩小地图;或者点击绿色箭头查看邻近地区的地图。


METAR-TAF: